CA-0385 weather

CLOSED Trinity Bay Airport
Quebec, Canada

Public forecast

Using degrees Celsius for public forecast. Weather courtesy of forecast.io.

Closest aviation weather report (METAR) to Trinity Bay Airport

Closest report is Baie Comeau Airport, 38.3 nm (70.9 km) WSW. Retrieved 2020/06/01 15:00 UTC (1 hour ago):

CYBC 011500Z AUTO 29007KT 250V350 9SM OVC065 11/M05 A2998 RMK SLP154

Closest aviation forecast (TAF) to Trinity Bay Airport

Closest forecast is Baie Comeau Airport, 38.3 nm (70.9 km) WSW. Retrieved 2020/06/01 14:00 UTC (2 hours ago):

TAF CYBC 011330Z 0114/0202 35012KT P6SM BKN060 BECMG 0116/0118 24010KT FM020000 30010KT P6SM SCT060 RMK FCST BASED ON AUTO OBS NXT FCST BY 012000Z